sensor_id;sensor_type;location;lat;lon;timestamp;temperature;humidity
6486;DHT22;3276;48.490;9.222;2022-12-29T00:02:08;8.60;12.20
6486;DHT22;3276;48.490;9.222;2022-12-29T00:04:33;8.60;12.10
6486;DHT22;3276;48.490;9.222;2022-12-29T00:06:59;8.60;12.20
6486;DHT22;3276;48.490;9.222;2022-12-29T00:09:25;8.60;12.20
6486;DHT22;3276;48.490;9.222;2022-12-29T00:11:51;8.60;12.10
6486;DHT22;3276;48.490;9.222;2022-12-29T00:14:17;8.60;12.20
6486;DHT22;3276;48.490;9.222;2022-12-29T00:17:02;8.60;12.10
6486;DHT22;3276;48.490;9.222;2022-12-29T00:19:28;8.70;12.10
6486;DHT22;3276;48.490;9.222;2022-12-29T00:22:13;8.70;11.90
6486;DHT22;3276;48.490;9.222;2022-12-29T00:24:58;8.80;11.80
6486;DHT22;3276;48.490;9.222;2022-12-29T00:27:43;8.80;11.90
6486;DHT22;3276;48.490;9.222;2022-12-29T00:30:27;8.80;11.90
6486;DHT22;3276;48.490;9.222;2022-12-29T00:33:13;8.90;11.80
6486;DHT22;3276;48.490;9.222;2022-12-29T00:36:46;8.90;11.50
6486;DHT22;3276;48.490;9.222;2022-12-29T00:38:57;9.00;11.60
6486;DHT22;3276;48.490;9.222;2022-12-29T00:41:42;9.00;11.50
6486;DHT22;3276;48.490;9.222;2022-12-29T00:44:26;9.00;11.50
6486;DHT22;3276;48.490;9.222;2022-12-29T00:46:52;8.90;11.70
6486;DHT22;3276;48.490;9.222;2022-12-29T00:49:17;8.80;11.70
6486;DHT22;3276;48.490;9.222;2022-12-29T00:54:30;8.80;12.20
6486;DHT22;3276;48.490;9.222;2022-12-29T00:56:56;8.70;12.20
6486;DHT22;3276;48.490;9.222;2022-12-29T00:59:22;8.70;12.20
6486;DHT22;3276;48.490;9.222;2022-12-29T01:01:51;8.70;12.40
6486;DHT22;3276;48.490;9.222;2022-12-29T01:04:18;8.60;12.40
6486;DHT22;3276;48.490;9.222;2022-12-29T01:06:43;8.60;12.50
6486;DHT22;3276;48.490;9.222;2022-12-29T01:09:09;8.60;12.50
6486;DHT22;3276;48.490;9.222;2022-12-29T01:11:54;8.70;12.50
6486;DHT22;3276;48.490;9.222;2022-12-29T01:14:20;8.70;12.30
6486;DHT22;3276;48.490;9.222;2022-12-29T01:16:46;8.70;12.30
6486;DHT22;3276;48.490;9.222;2022-12-29T01:19:12;8.70;12.10
6486;DHT22;3276;48.490;9.222;2022-12-29T01:21:38;8.80;12.30
6486;DHT22;3276;48.490;9.222;2022-12-29T01:24:04;8.80;12.40
6486;DHT22;3276;48.490;9.222;2022-12-29T01:26:29;8.80;11.90
6486;DHT22;3276;48.490;9.222;2022-12-29T01:28:55;8.90;11.90
6486;DHT22;3276;48.490;9.222;2022-12-29T01:31:20;8.90;12.30
6486;DHT22;3276;48.490;9.222;2022-12-29T01:33:46;8.90;11.70
6486;DHT22;3276;48.490;9.222;2022-12-29T01:36:14;9.00;11.70
6486;DHT22;3276;48.490;9.222;2022-12-29T01:38:41;9.00;11.70
6486;DHT22;3276;48.490;9.222;2022-12-29T01:41:08;9.10;11.60
6486;DHT22;3276;48.490;9.222;2022-12-29T01:48:40;9.20;11.40
6486;DHT22;3276;48.490;9.222;2022-12-29T01:51:07;9.20;11.30
6486;DHT22;3276;48.490;9.222;2022-12-29T01:53:33;9.20;11.40
6486;DHT22;3276;48.490;9.222;2022-12-29T01:56:04;9.20;11.30
6486;DHT22;3276;48.490;9.222;2022-12-29T01:58:35;9.20;11.30
6486;DHT22;3276;48.490;9.222;2022-12-29T02:01:03;9.20;11.50
6486;DHT22;3276;48.490;9.222;2022-12-29T02:03:30;9.20;11.20
6486;DHT22;3276;48.490;9.222;2022-12-29T02:08:59;9.20;11.60
6486;DHT22;3276;48.490;9.222;2022-12-29T02:11:26;9.10;11.20
6486;DHT22;3276;48.490;9.222;2022-12-29T02:13:53;9.20;11.50
6486;DHT22;3276;48.490;9.222;2022-12-29T02:16:34;9.20;11.60
6486;DHT22;3276;48.490;9.222;2022-12-29T02:22:11;9.10;11.40
6486;DHT22;3276;48.490;9.222;2022-12-29T02:32:49;9.00;11.90
6486;DHT22;3276;48.490;9.222;2022-12-29T02:40:41;8.80;12.10
6486;DHT22;3276;48.490;9.222;2022-12-29T02:43:26;8.80;12.30
6486;DHT22;3276;48.490;9.222;2022-12-29T02:50:16;8.80;12.30
6486;DHT22;3276;48.490;9.222;2022-12-29T02:52:23;8.80;12.30
6486;DHT22;3276;48.490;9.222;2022-12-29T02:54:50;8.80;12.10
6486;DHT22;3276;48.490;9.222;2022-12-29T02:59:49;8.90;11.70
6486;DHT22;3276;48.490;9.222;2022-12-29T03:02:21;8.90;11.70
6486;DHT22;3276;48.490;9.222;2022-12-29T03:05:17;8.90;11.30
6486;DHT22;3276;48.490;9.222;2022-12-29T03:13:44;9.50;9.50
6486;DHT22;3276;48.490;9.222;2022-12-29T03:16:40;9.70;8.60
6486;DHT22;3276;48.490;9.222;2022-12-29T03:19:28;9.90;8.10
6486;DHT22;3276;48.490;9.222;2022-12-29T03:21:59;10.10;7.40
6486;DHT22;3276;48.490;9.222;2022-12-29T03:24:49;10.20;7.40
6486;DHT22;3276;48.490;9.222;2022-12-29T03:27:21;10.20;7.00
6486;DHT22;3276;48.490;9.222;2022-12-29T03:29:54;10.40;6.40
6486;DHT22;3276;48.490;9.222;2022-12-29T03:32:24;10.50;6.40
6486;DHT22;3276;48.490;9.222;2022-12-29T03:34:52;10.60;6.30
6486;DHT22;3276;48.490;9.222;2022-12-29T03:37:22;10.70;6.20
6486;DHT22;3276;48.490;9.222;2022-12-29T03:39:49;10.80;6.00
6486;DHT22;3276;48.490;9.222;2022-12-29T03:42:19;10.80;5.80
6486;DHT22;3276;48.490;9.222;2022-12-29T03:44:46;10.90;5.80
6486;DHT22;3276;48.490;9.222;2022-12-29T03:47:13;10.90;5.50
6486;DHT22;3276;48.490;9.222;2022-12-29T03:49:39;10.90;5.80
6486;DHT22;3276;48.490;9.222;2022-12-29T03:52:05;11.00;5.90
6486;DHT22;3276;48.490;9.222;2022-12-29T03:54:30;11.00;5.50
6486;DHT22;3276;48.490;9.222;2022-12-29T03:56:56;11.00;5.90
6486;DHT22;3276;48.490;9.222;2022-12-29T03:59:22;10.90;5.80
6486;DHT22;3276;48.490;9.222;2022-12-29T04:01:47;10.90;5.90
6486;DHT22;3276;48.490;9.222;2022-12-29T04:04:13;10.90;5.90
6486;DHT22;3276;48.490;9.222;2022-12-29T04:06:39;10.90;5.90
6486;DHT22;3276;48.490;9.222;2022-12-29T04:09:04;10.80;6.60
6486;DHT22;3276;48.490;9.222;2022-12-29T04:11:30;10.60;6.80
6486;DHT22;3276;48.490;9.222;2022-12-29T04:13:56;10.50;6.60
6486;DHT22;3276;48.490;9.222;2022-12-29T04:16:21;10.50;7.30
6486;DHT22;3276;48.490;9.222;2022-12-29T04:18:47;10.50;7.30
6486;DHT22;3276;48.490;9.222;2022-12-29T04:21:13;10.50;7.20
6486;DHT22;3276;48.490;9.222;2022-12-29T04:23:39;10.50;7.30
6486;DHT22;3276;48.490;9.222;2022-12-29T04:26:05;10.40;7.40
6486;DHT22;3276;48.490;9.222;2022-12-29T04:28:34;10.50;8.00
6486;DHT22;3276;48.490;9.222;2022-12-29T04:31:00;10.50;7.10
6486;DHT22;3276;48.490;9.222;2022-12-29T04:33:25;10.50;7.20
6486;DHT22;3276;48.490;9.222;2022-12-29T04:35:51;10.60;7.40
6486;DHT22;3276;48.490;9.222;2022-12-29T04:38:21;10.70;7.00
6486;DHT22;3276;48.490;9.222;2022-12-29T04:40:47;10.90;6.70
6486;DHT22;3276;48.490;9.222;2022-12-29T04:43:13;10.80;6.80
6486;DHT22;3276;48.490;9.222;2022-12-29T04:45:48;10.90;6.60
6486;DHT22;3276;48.490;9.222;2022-12-29T04:48:14;11.00;6.50
6486;DHT22;3276;48.490;9.222;2022-12-29T04:50:41;10.90;6.40
6486;DHT22;3276;48.490;9.222;2022-12-29T04:53:07;11.00;6.10
6486;DHT22;3276;48.490;9.222;2022-12-29T04:55:32;11.00;6.00
6486;DHT22;3276;48.490;9.222;2022-12-29T04:57:58;10.90;5.90
6486;DHT22;3276;48.490;9.222;2022-12-29T05:00:24;10.80;6.70
6486;DHT22;3276;48.490;9.222;2022-12-29T05:02:49;10.80;6.30
6486;DHT22;3276;48.490;9.222;2022-12-29T05:05:16;10.80;6.70
6486;DHT22;3276;48.490;9.222;2022-12-29T05:07:42;10.80;6.70
6486;DHT22;3276;48.490;9.222;2022-12-29T05:10:08;10.80;6.90
6486;DHT22;3276;48.490;9.222;2022-12-29T05:12:35;10.80;6.60
6486;DHT22;3276;48.490;9.222;2022-12-29T05:15:01;10.80;6.60
6486;DHT22;3276;48.490;9.222;2022-12-29T05:17:28;10.90;6.50
6486;DHT22;3276;48.490;9.222;2022-12-29T05:19:53;10.80;6.60
6486;DHT22;3276;48.490;9.222;2022-12-29T05:22:19;10.70;6.40
6486;DHT22;3276;48.490;9.222;2022-12-29T05:24:45;10.50;6.70
6486;DHT22;3276;48.490;9.222;2022-12-29T05:27:10;10.40;6.80
6486;DHT22;3276;48.490;9.222;2022-12-29T05:29:36;10.30;7.20
6486;DHT22;3276;48.490;9.222;2022-12-29T05:32:01;10.10;7.60
6486;DHT22;3276;48.490;9.222;2022-12-29T05:34:27;10.10;8.30
6486;DHT22;3276;48.490;9.222;2022-12-29T05:36:52;10.10;8.10
6486;DHT22;3276;48.490;9.222;2022-12-29T05:39:18;10.20;8.10
6486;DHT22;3276;48.490;9.222;2022-12-29T05:41:43;10.20;8.10
